This is the latest recevied weather packets stored in our database for station/object K0RGI. If no packets are shown the sender has not sent any weather packets the latest 1 day(s).
| Time | Temp. | Humidity | Pressure | Rain* | Wind** | Luminosity | Snow |
|---|---|---|---|---|---|---|---|
| 1778087725 | 21.11° C | 87% | 1014.3 hPa | 0 mm | - | 174 W/m² | - |
| 1778087120 | 21.11° C | 87% | 1014.3 hPa | 0 mm | - | 308 W/m² | - |
| 1778086516 | 20.56° C | 89% | 1014.1 hPa | 0 mm | - | 304 W/m² | - |
| 1778084712 | 19.44° C | 98% | 1014.1 hPa | 0 mm | - | 271 W/m² | - |
| 1778082897 | 17.78° C | 99% | 1014 hPa | 0 mm | - | 279 W/m² | - |
| 1778081188 | 17.22° C | 99% | 1014.1 hPa | 0 mm | - | 80 W/m² | - |
| 1778076370 | 16.67° C | 99% | 1014.9 hPa | 7.11 mm | - | 42 W/m² | - |
| 1778074568 | 16.67° C | 98% | 1014.9 hPa | 3.05 mm | - | 14 W/m² | - |
| 1778073968 | 16.67° C | 98% | 1015.1 hPa | 4.83 mm | - | 13 W/m² | - |
| 1778072767 | 17.22° C | 97% | 1015 hPa | 28.7 mm | - | 8 W/m² | - |
| 1778066734 | 18.89° C | 86% | 1013 hPa | 0 mm | - | 3 W/m² | - |
| 1778065524 | 19.44° C | 82% | 1012.7 hPa | 0 mm | - | 1 W/m² | - |
| 1778064318 | 20.56° C | 76% | 1012.9 hPa | 0 mm | - | 0 W/m² | - |
| 1778063114 | 21.11° C | 73% | 1012.6 hPa | 0 mm | - | 0 W/m² | - |
| 1778061909 | 21.11° C | 73% | 1012.2 hPa | 0 mm | - | 0 W/m² | - |
| 1778061305 | 21.11° C | 72% | 1011.7 hPa | 0 mm | - | 0 W/m² | - |
| 1778060705 | 21.11° C | 71% | 1011.7 hPa | 0 mm | - | 0 W/m² | - |
| 1778058890 | 21.11° C | 67% | 1011.9 hPa | 0 mm | - | 0 W/m² | - |
| 1778058291 | 21.11° C | 66% | 1011.6 hPa | 0 mm | - | 0 W/m² | - |
| 1778057089 | 21.11° C | 64% | 1011.7 hPa | 0 mm | - | 0 W/m² | - |
| 1778056488 | 21.11° C | 63% | 1011.5 hPa | 0 mm | - | 0 W/m² | - |
| 1778055888 | 21.11° C | 62% | 1011.7 hPa | 0 mm | - | 0 W/m² | - |
| 1778055288 | 21.11° C | 62% | 1011.3 hPa | 0 mm | - | 0 W/m² | - |
| 1778054688 | 21.11° C | 60% | 1011.3 hPa | 0 mm | - | 0 W/m² | - |
| 1778054083 | 21.11° C | 60% | 1011.7 hPa | 0 mm | - | 0 W/m² | - |
* Rain latest hour (hover to see other rain measurements)
** Current wind speed in m/s (hover to see current wind gust speed)